Mari Lampton — WDE3648 — position and weather

sailwx.info

Track history (hours):
 
Tides and Currents Weather Stations Pressure Air Temp Water Temp Dewpoint Dewpoint Depression Visibility Wind Speed Wind Dir Waves Ship Positions

Mari Lampton

More information available from US FCC via Universal Licensing System and Coast Guard Vessel Documentation Center.

Last reported at 2014-Aug-26 00:33 UTC. Time now 2014-Sep-02 18:56 UTC.
Position N 30°03' W 090°36'.

Type: Towing. MMSI: 367342210.

Date/timePositionNaut miles runAvg speedWind from/ knotsBaromVisibWave heightAir tempDewpointWater temp
2014-Aug-26 00:33N 30°03' W 090°36'12 0.9
2014-Aug-25 11:30N 29°57' W 090°23'1 0.6
2014-Aug-25 10:33N 29°57' W 090°23'24 1.2
2014-Aug-24 14:06N 29°33' W 090°24'3 5.8
2014-Aug-24 13:33N 29°33' W 090°27'6 5.7
2014-Aug-24 12:33N 29°34' W 090°34'5 5.0
2014-Aug-24 11:29N 29°36' W 090°40'3 3.0
2014-Aug-24 10:23N 29°35' W 090°43'3 1.2
2014-Aug-24 08:09N 29°33' W 090°45'2 3.4
2014-Aug-24 07:33N 29°32' W 090°47'6 5.5
2014-Aug-24 06:33N 29°33' W 090°54'5 5.1
2014-Aug-24 05:33N 29°36' W 090°58'5 4.5
2014-Aug-24 04:33N 29°37' W 091°03'2 2.3
2014-Aug-24 03:33N 29°38' W 091°06'3 3.2
2014-Aug-24 02:33N 29°41' W 091°08'3 2.8
2014-Aug-24 01:33N 29°41' W 091°12'4 3.8
2014-Aug-24 00:32N 29°39' W 091°15'4 3.7
2014-Aug-23 23:33N 29°38' W 091°19'5 5.3
2014-Aug-23 22:32N 29°39' W 091°26'5 4.7
2014-Aug-23 21:24N 29°42' W 091°31'  
2014-Aug-18 08:08N 29°41' W 091°29'7 4.5
2014-Aug-18 06:33N 29°39' W 091°21'5 5.3
2014-Aug-18 05:33N 29°39' W 091°15'5 4.5
2014-Aug-18 04:32N 29°41' W 091°10'4 4.2
2014-Aug-18 03:33N 29°38' W 091°06'3 2.9
2014-Aug-18 02:33N 29°37' W 091°03'5 5.4
2014-Aug-18 01:33N 29°35' W 090°58'39 1.8
2014-Aug-17 03:29N 29°56' W 090°20'3 3.4
2014-Aug-17 02:31N 29°57' W 090°23'  
Track history (hours):
 
Tides and Currents Weather Stations Pressure Air Temp Water Temp Dewpoint Dewpoint Depression Visibility Wind Speed Wind Dir Waves Ship Positions

Mari Lampton

More information available from US FCC via Universal Licensing System and Coast Guard Vessel Documentation Center.

Last reported at 2014-Aug-26 00:33 UTC. Time now 2014-Sep-02 18:56 UTC.
Position N 30°03' W 090°36'.

Type: Towing. MMSI: 367342210.

Date/timePositionNaut miles runAvg speedWind from/ knotsBaromVisibWave heightAir tempDewpointWater temp
2014-Aug-26 00:33N 30°03' W 090°36'12 0.9
2014-Aug-25 11:30N 29°57' W 090°23'1 0.6
2014-Aug-25 10:33N 29°57' W 090°23'24 1.2
2014-Aug-24 14:06N 29°33' W 090°24'3 5.8
2014-Aug-24 13:33N 29°33' W 090°27'6 5.7
2014-Aug-24 12:33N 29°34' W 090°34'5 5.0
2014-Aug-24 11:29N 29°36' W 090°40'3 3.0
2014-Aug-24 10:23N 29°35' W 090°43'3 1.2
2014-Aug-24 08:09N 29°33' W 090°45'2 3.4
2014-Aug-24 07:33N 29°32' W 090°47'6 5.5
2014-Aug-24 06:33N 29°33' W 090°54'5 5.1
2014-Aug-24 05:33N 29°36' W 090°58'5 4.5
2014-Aug-24 04:33N 29°37' W 091°03'2 2.3
2014-Aug-24 03:33N 29°38' W 091°06'3 3.2
2014-Aug-24 02:33N 29°41' W 091°08'3 2.8
2014-Aug-24 01:33N 29°41' W 091°12'4 3.8
2014-Aug-24 00:32N 29°39' W 091°15'4 3.7
2014-Aug-23 23:33N 29°38' W 091°19'5 5.3
2014-Aug-23 22:32N 29°39' W 091°26'5 4.7
2014-Aug-23 21:24N 29°42' W 091°31'  
2014-Aug-18 08:08N 29°41' W 091°29'7 4.5
2014-Aug-18 06:33N 29°39' W 091°21'5 5.3
2014-Aug-18 05:33N 29°39' W 091°15'5 4.5
2014-Aug-18 04:32N 29°41' W 091°10'4 4.2
2014-Aug-18 03:33N 29°38' W 091°06'3 2.9
2014-Aug-18 02:33N 29°37' W 091°03'5 5.4
2014-Aug-18 01:33N 29°35' W 090°58'39 1.8
2014-Aug-17 03:29N 29°56' W 090°20'3 3.4
2014-Aug-17 02:31N 29°57' W 090°23'  

Dump ship's entire track history